Miami, FL (33176)

4:27 PM EST on December 22, 2014 (GMT -0500)
APRSWXNET Miami FL US | Change Station
CLOSE
Current Station
Personal Weather Station
Location: Miami, FL
Elevation: 9 ft
Nearby Weather Stations

Elev 9 ft 25.65 °N, 80.36 °W | Updated 34 minutes ago

Scattered Clouds
Scattered Clouds
78 °F
Feels Like 81 °F
N
3
Wind Variable Wind from NE
Gusts 7.0 mph

Today
High -- | Low -- °F
--% Chance of Precip.
Yesterday
High -- | Low -- °F
Precip. -- in
7:03 AM 5:36 PM
New Moon, 1% visible
Pressure 29.95 in
Visibility 10.0 miles
Clouds Few 2600 ft
Scattered Clouds 3400 ft
Heat Index 81 °F
Dew Point 75 °F
Humidity 92%
Rainfall 0.00 in
Snow Depth Not available.
UV 1 out of 12
Pollen 3.60 out of 12
Air Quality Not available.
Flu Activity Not available.
METAR KTMB 222053Z 13009KT 10SM FEW026 SCT034 26/21 A2995 RMK AO2 SLP140 T02610211 56015

More Conditions Fewer Conditions

Pressure 29.95 in
Visibility 10.0 miles
Clouds Few 2600 ft
Scattered Clouds 3400 ft
Heat Index 81 °F
Dew Point 75 °F
Humidity 92%
Rainfall 0.00 in
Snow Depth Not available.
UV 1 out of 12
Pollen 3.60 out of 12
Air Quality Not available.
Flu Activity Not available.
METAR KTMB 222053Z 13009KT 10SM FEW026 SCT034 26/21 A2995 RMK AO2 SLP140 T02610211 56015

More Conditions Fewer Conditions

10-Day Weather Forecast

Almanac

Astronomy

Dec. 22, 2014 Rise Set
Actual Time
Civil Twilight
Nautical Twilight
Astronomical Twilight
Moon
Length of Visible Light
Length of Day
Tomorrow will be .
, % of the Moon is Illuminated

Today's Extremes

State Highs State Lows

Community

WunderPhotos

Upload Photos

1,779,682 photos uploaded!

WunderBlogs® & News

Nearby

Air Quality

  Air Quality AQ Index Pollutant
Not available.

Snow Depth

Station Depth Elevation

Earthquake Activity

City Distance Mag. Time & Date
Minimum magnitude displayed is 2.5.

Coastal Water Temperatures

Place Temperature

Nearby Weather Stations